sensor_id;sensor_type;location;lat;lon;timestamp;temperature;humidity
60027;DHT22;45891;53.006;6.512;2023-09-08T00:01:58;19.40;97.70
60027;DHT22;45891;53.006;6.512;2023-09-08T00:04:25;19.40;97.80
60027;DHT22;45891;53.006;6.512;2023-09-08T00:06:51;19.40;97.90
60027;DHT22;45891;53.006;6.512;2023-09-08T00:09:17;19.30;98.00
60027;DHT22;45891;53.006;6.512;2023-09-08T00:11:43;19.30;98.00
60027;DHT22;45891;53.006;6.512;2023-09-08T00:14:09;19.20;98.20
60027;DHT22;45891;53.006;6.512;2023-09-08T00:16:35;19.20;98.40
60027;DHT22;45891;53.006;6.512;2023-09-08T00:19:01;19.10;98.40
60027;DHT22;45891;53.006;6.512;2023-09-08T00:21:27;19.10;98.50
60027;DHT22;45891;53.006;6.512;2023-09-08T00:23:53;19.10;98.70
60027;DHT22;45891;53.006;6.512;2023-09-08T00:26:20;19.00;98.90
60027;DHT22;45891;53.006;6.512;2023-09-08T00:28:47;19.00;99.00
60027;DHT22;45891;53.006;6.512;2023-09-08T00:31:13;19.00;99.10
60027;DHT22;45891;53.006;6.512;2023-09-08T00:33:40;18.90;99.10
60027;DHT22;45891;53.006;6.512;2023-09-08T00:36:07;18.90;99.20
60027;DHT22;45891;53.006;6.512;2023-09-08T00:38:33;18.80;99.30
60027;DHT22;45891;53.006;6.512;2023-09-08T00:40:59;18.70;99.40
60027;DHT22;45891;53.006;6.512;2023-09-08T00:43:26;18.70;99.60
60027;DHT22;45891;53.006;6.512;2023-09-08T00:45:54;18.70;99.60
60027;DHT22;45891;53.006;6.512;2023-09-08T00:48:21;18.70;99.70
60027;DHT22;45891;53.006;6.512;2023-09-08T00:50:47;18.60;99.80
60027;DHT22;45891;53.006;6.512;2023-09-08T00:53:13;18.50;99.80
60027;DHT22;45891;53.006;6.512;2023-09-08T00:55:41;18.50;99.90
60027;DHT22;45891;53.006;6.512;2023-09-08T00:58:07;18.50;99.90
60027;DHT22;45891;53.006;6.512;2023-09-08T01:00:33;18.40;99.90
60027;DHT22;45891;53.006;6.512;2023-09-08T01:03:00;18.40;99.90
60027;DHT22;45891;53.006;6.512;2023-09-08T01:05:26;18.30;99.90
60027;DHT22;45891;53.006;6.512;2023-09-08T01:07:53;18.30;99.90
60027;DHT22;45891;53.006;6.512;2023-09-08T01:10:19;18.20;99.90
60027;DHT22;45891;53.006;6.512;2023-09-08T01:12:45;18.20;99.90
60027;DHT22;45891;53.006;6.512;2023-09-08T01:15:11;18.10;99.90
60027;DHT22;45891;53.006;6.512;2023-09-08T01:17:38;18.10;99.90
60027;DHT22;45891;53.006;6.512;2023-09-08T01:23:01;18.00;99.90
60027;DHT22;45891;53.006;6.512;2023-09-08T01:25:30;18.00;99.90
60027;DHT22;45891;53.006;6.512;2023-09-08T01:28:01;17.90;99.90
60027;DHT22;45891;53.006;6.512;2023-09-08T01:30:29;17.90;99.90
60027;DHT22;45891;53.006;6.512;2023-09-08T01:32:58;17.80;99.90
60027;DHT22;45891;53.006;6.512;2023-09-08T01:35:25;17.80;99.90
60027;DHT22;45891;53.006;6.512;2023-09-08T01:37:51;17.80;99.90
60027;DHT22;45891;53.006;6.512;2023-09-08T01:40:17;17.80;99.90
60027;DHT22;45891;53.006;6.512;2023-09-08T01:42:44;17.70;99.90
60027;DHT22;45891;53.006;6.512;2023-09-08T01:45:11;17.70;99.90
60027;DHT22;45891;53.006;6.512;2023-09-08T01:47:37;17.70;99.90
60027;DHT22;45891;53.006;6.512;2023-09-08T01:50:04;17.70;99.90
60027;DHT22;45891;53.006;6.512;2023-09-08T01:52:30;17.60;99.90
60027;DHT22;45891;53.006;6.512;2023-09-08T01:54:56;17.60;99.90
60027;DHT22;45891;53.006;6.512;2023-09-08T01:57:22;17.60;99.90
60027;DHT22;45891;53.006;6.512;2023-09-08T01:59:48;17.60;99.90
60027;DHT22;45891;53.006;6.512;2023-09-08T02:02:14;17.60;99.90
60027;DHT22;45891;53.006;6.512;2023-09-08T02:04:41;17.50;99.90
60027;DHT22;45891;53.006;6.512;2023-09-08T02:07:07;17.50;99.90
60027;DHT22;45891;53.006;6.512;2023-09-08T02:09:38;17.50;99.90
60027;DHT22;45891;53.006;6.512;2023-09-08T02:12:05;17.50;99.90
60027;DHT22;45891;53.006;6.512;2023-09-08T02:14:31;17.50;99.90
60027;DHT22;45891;53.006;6.512;2023-09-08T02:16:57;17.40;99.90
60027;DHT22;45891;53.006;6.512;2023-09-08T02:19:23;17.40;99.90
60027;DHT22;45891;53.006;6.512;2023-09-08T02:21:49;17.40;99.90
60027;DHT22;45891;53.006;6.512;2023-09-08T02:24:15;17.30;99.90
60027;DHT22;45891;53.006;6.512;2023-09-08T02:26:41;17.30;99.90
60027;DHT22;45891;53.006;6.512;2023-09-08T02:29:08;17.30;99.90
60027;DHT22;45891;53.006;6.512;2023-09-08T02:31:34;17.30;99.90
60027;DHT22;45891;53.006;6.512;2023-09-08T02:34:00;17.30;99.90
60027;DHT22;45891;53.006;6.512;2023-09-08T02:36:26;17.30;99.90
60027;DHT22;45891;53.006;6.512;2023-09-08T02:38:56;17.30;99.90
60027;DHT22;45891;53.006;6.512;2023-09-08T02:41:22;17.30;99.90
60027;DHT22;45891;53.006;6.512;2023-09-08T02:43:49;17.30;99.90
60027;DHT22;45891;53.006;6.512;2023-09-08T02:46:15;17.30;99.90
60027;DHT22;45891;53.006;6.512;2023-09-08T02:48:42;17.30;99.90
60027;DHT22;45891;53.006;6.512;2023-09-08T02:51:08;17.30;99.90
60027;DHT22;45891;53.006;6.512;2023-09-08T02:53:34;17.20;99.90
60027;DHT22;45891;53.006;6.512;2023-09-08T02:56:00;17.30;99.90
60027;DHT22;45891;53.006;6.512;2023-09-08T02:58:26;17.20;99.90
60027;DHT22;45891;53.006;6.512;2023-09-08T03:00:53;17.30;99.90
60027;DHT22;45891;53.006;6.512;2023-09-08T03:03:19;17.30;99.90
60027;DHT22;45891;53.006;6.512;2023-09-08T03:05:46;17.30;99.90
60027;DHT22;45891;53.006;6.512;2023-09-08T03:08:12;17.30;99.90
60027;DHT22;45891;53.006;6.512;2023-09-08T03:10:38;17.30;99.90
60027;DHT22;45891;53.006;6.512;2023-09-08T03:13:04;17.30;99.90
60027;DHT22;45891;53.006;6.512;2023-09-08T03:15:31;17.30;99.90
60027;DHT22;45891;53.006;6.512;2023-09-08T03:17:57;17.30;99.90
60027;DHT22;45891;53.006;6.512;2023-09-08T03:20:27;17.30;99.90
60027;DHT22;45891;53.006;6.512;2023-09-08T03:22:54;17.20;99.90
60027;DHT22;45891;53.006;6.512;2023-09-08T03:25:21;17.20;99.90
60027;DHT22;45891;53.006;6.512;2023-09-08T03:27:47;17.20;99.90
60027;DHT22;45891;53.006;6.512;2023-09-08T03:30:13;17.20;99.90
60027;DHT22;45891;53.006;6.512;2023-09-08T03:32:39;17.10;99.90
60027;DHT22;45891;53.006;6.512;2023-09-08T03:35:06;17.10;99.90
60027;DHT22;45891;53.006;6.512;2023-09-08T03:37:35;17.00;99.90
60027;DHT22;45891;53.006;6.512;2023-09-08T03:40:02;17.00;99.90
60027;DHT22;45891;53.006;6.512;2023-09-08T03:42:31;17.00;99.90
60027;DHT22;45891;53.006;6.512;2023-09-08T03:44:57;17.00;99.90
60027;DHT22;45891;53.006;6.512;2023-09-08T03:47:23;17.00;99.90
60027;DHT22;45891;53.006;6.512;2023-09-08T03:49:50;16.90;99.90
60027;DHT22;45891;53.006;6.512;2023-09-08T03:52:16;16.90;99.90
60027;DHT22;45891;53.006;6.512;2023-09-08T03:54:42;16.90;99.90
60027;DHT22;45891;53.006;6.512;2023-09-08T03:57:08;16.80;99.90
60027;DHT22;45891;53.006;6.512;2023-09-08T03:59:34;16.80;99.90
60027;DHT22;45891;53.006;6.512;2023-09-08T04:02:00;16.80;99.90
60027;DHT22;45891;53.006;6.512;2023-09-08T04:04:27;16.80;99.90
60027;DHT22;45891;53.006;6.512;2023-09-08T04:06:53;16.70;99.90
60027;DHT22;45891;53.006;6.512;2023-09-08T04:09:19;16.70;99.90
60027;DHT22;45891;53.006;6.512;2023-09-08T04:11:45;16.70;99.90
60027;DHT22;45891;53.006;6.512;2023-09-08T04:14:11;16.60;99.90
60027;DHT22;45891;53.006;6.512;2023-09-08T04:16:37;16.70;99.90
60027;DHT22;45891;53.006;6.512;2023-09-08T04:19:03;16.70;99.90
60027;DHT22;45891;53.006;6.512;2023-09-08T04:21:29;16.70;99.90
60027;DHT22;45891;53.006;6.512;2023-09-08T04:23:55;16.70;99.90
60027;DHT22;45891;53.006;6.512;2023-09-08T04:26:22;16.60;99.90
60027;DHT22;45891;53.006;6.512;2023-09-08T04:28:48;16.60;99.90
60027;DHT22;45891;53.006;6.512;2023-09-08T04:31:14;16.60;99.90
60027;DHT22;45891;53.006;6.512;2023-09-08T04:33:40;16.60;99.90
60027;DHT22;45891;53.006;6.512;2023-09-08T04:36:06;16.60;99.90
60027;DHT22;45891;53.006;6.512;2023-09-08T04:38:32;16.60;99.90
60027;DHT22;45891;53.006;6.512;2023-09-08T04:40:58;16.60;99.90
60027;DHT22;45891;53.006;6.512;2023-09-08T04:43:24;16.50;99.90
60027;DHT22;45891;53.006;6.512;2023-09-08T04:45:50;16.50;99.90
60027;DHT22;45891;53.006;6.512;2023-09-08T04:48:16;16.50;99.90
60027;DHT22;45891;53.006;6.512;2023-09-08T04:50:43;16.50;99.90
60027;DHT22;45891;53.006;6.512;2023-09-08T04:53:09;16.50;99.90
60027;DHT22;45891;53.006;6.512;2023-09-08T04:55:35;16.50;99.90
60027;DHT22;45891;53.006;6.512;2023-09-08T04:58:01;16.50;99.90
60027;DHT22;45891;53.006;6.512;2023-09-08T05:00:27;16.40;99.90
60027;DHT22;45891;53.006;6.512;2023-09-08T05:02:53;16.40;99.90
60027;DHT22;45891;53.006;6.512;2023-09-08T05:05:19;16.50;99.90
60027;DHT22;45891;53.006;6.512;2023-09-08T05:07:45;16.50;99.90
60027;DHT22;45891;53.006;6.512;2023-09-08T05:10:12;16.40;99.90
60027;DHT22;45891;53.006;6.512;2023-09-08T05:12:38;16.50;99.90
60027;DHT22;45891;53.006;6.512;2023-09-08T05:15:04;16.50;99.90
60027;DHT22;45891;53.006;6.512;2023-09-08T05:17:40;16.50;99.90
60027;DHT22;45891;53.006;6.512;2023-09-08T05:20:07;16.50;99.90
60027;DHT22;45891;53.006;6.512;2023-09-08T05:22:33;16.50;99.90
60027;DHT22;45891;53.006;6.512;2023-09-08T05:24:59;16.50;99.90
60027;DHT22;45891;53.006;6.512;2023-09-08T05:27:25;16.60;99.90
60027;DHT22;45891;53.006;6.512;2023-09-08T05:29:51;16.60;99.90
60027;DHT22;45891;53.006;6.512;2023-09-08T05:32:17;16.60;99.90
60027;DHT22;45891;53.006;6.512;2023-09-08T05:34:44;16.70;99.90
60027;DHT22;45891;53.006;6.512;2023-09-08T05:37:10;16.70;99.90
60027;DHT22;45891;53.006;6.512;2023-09-08T05:39:36;16.80;99.90
60027;DHT22;45891;53.006;6.512;2023-09-08T05:42:02;17.00;99.90
60027;DHT22;45891;53.006;6.512;2023-09-08T05:44:28;17.40;99.90
60027;DHT22;45891;53.006;6.512;2023-09-08T05:46:54;18.00;99.90
60027;DHT22;45891;53.006;6.512;2023-09-08T05:49:20;18.50;99.90
60027;DHT22;45891;53.006;6.512;2023-09-08T05:51:46;18.90;99.90
60027;DHT22;45891;53.006;6.512;2023-09-08T05:54:13;19.30;99.90
60027;DHT22;45891;53.006;6.512;2023-09-08T05:56:39;19.70;99.90
60027;DHT22;45891;53.006;6.512;2023-09-08T05:59:05;20.00;99.90
60027;DHT22;45891;53.006;6.512;2023-09-08T06:01:31;20.40;99.90
60027;DHT22;45891;53.006;6.512;2023-09-08T06:03:58;20.70;99.90
60027;DHT22;45891;53.006;6.512;2023-09-08T06:06:24;21.00;99.90
60027;DHT22;45891;53.006;6.512;2023-09-08T06:08:54;21.30;99.90
60027;DHT22;45891;53.006;6.512;2023-09-08T06:11:20;21.60;99.90
60027;DHT22;45891;53.006;6.512;2023-09-08T06:13:47;21.90;99.90
60027;DHT22;45891;53.006;6.512;2023-09-08T06:16:13;22.20;99.90
60027;DHT22;45891;53.006;6.512;2023-09-08T06:18:39;22.50;99.90
60027;DHT22;45891;53.006;6.512;2023-09-08T06:21:09;22.70;99.90
60027;DHT22;45891;53.006;6.512;2023-09-08T06:23:36;23.00;99.90
60027;DHT22;45891;53.006;6.512;2023-09-08T06:26:02;23.10;99.80
60027;DHT22;45891;53.006;6.512;2023-09-08T06:28:28;23.30;99.70
60027;DHT22;45891;53.006;6.512;2023-09-08T06:30:54;23.60;99.50
60027;DHT22;45891;53.006;6.512;2023-09-08T06:33:21;23.80;99.20
60027;DHT22;45891;53.006;6.512;2023-09-08T06:35:48;24.10;99.10
60027;DHT22;45891;53.006;6.512;2023-09-08T06:38:14;24.30;98.60
60027;DHT22;45891;53.006;6.512;2023-09-08T06:40:40;24.60;98.40
60027;DHT22;45891;53.006;6.512;2023-09-08T06:43:07;24.80;98.00
60027;DHT22;45891;53.006;6.512;2023-09-08T06:45:33;25.10;97.60
60027;DHT22;45891;53.006;6.512;2023-09-08T06:47:59;25.20;97.30
60027;DHT22;45891;53.006;6.512;2023-09-08T06:50:26;25.40;97.20
60027;DHT22;45891;53.006;6.512;2023-09-08T06:52:52;25.60;96.80
60027;DHT22;45891;53.006;6.512;2023-09-08T06:55:18;25.80;96.60
60027;DHT22;45891;53.006;6.512;2023-09-08T06:57:46;25.90;96.20
60027;DHT22;45891;53.006;6.512;2023-09-08T07:00:13;26.20;96.10
60027;DHT22;45891;53.006;6.512;2023-09-08T07:02:40;26.40;95.80
60027;DHT22;45891;53.006;6.512;2023-09-08T07:05:06;26.60;95.50
60027;DHT22;45891;53.006;6.512;2023-09-08T07:07:34;26.80;95.30
60027;DHT22;45891;53.006;6.512;2023-09-08T07:10:04;27.10;94.90
60027;DHT22;45891;53.006;6.512;2023-09-08T07:12:31;27.20;94.30
60027;DHT22;45891;53.006;6.512;2023-09-08T07:14:57;27.30;94.50
60027;DHT22;45891;53.006;6.512;2023-09-08T07:17:23;27.60;94.40
60027;DHT22;45891;53.006;6.512;2023-09-08T07:19:50;27.80;94.10
60027;DHT22;45891;53.006;6.512;2023-09-08T07:22:16;28.00;93.60
60027;DHT22;45891;53.006;6.512;2023-09-08T07:24:42;28.10;93.50
60027;DHT22;45891;53.006;6.512;2023-09-08T07:27:08;28.40;93.20
60027;DHT22;45891;53.006;6.512;2023-09-08T07:29:34;28.60;92.80
60027;DHT22;45891;53.006;6.512;2023-09-08T07:32:01;28.70;92.50
60027;DHT22;45891;53.006;6.512;2023-09-08T07:34:27;28.90;92.30
60027;DHT22;45891;53.006;6.512;2023-09-08T07:36:53;29.20;92.00
60027;DHT22;45891;53.006;6.512;2023-09-08T07:39:19;29.10;91.70
60027;DHT22;45891;53.006;6.512;2023-09-08T07:41:45;29.30;91.60
60027;DHT22;45891;53.006;6.512;2023-09-08T07:44:12;29.60;91.60
60027;DHT22;45891;53.006;6.512;2023-09-08T07:46:38;29.80;91.50
60027;DHT22;45891;53.006;6.512;2023-09-08T07:49:05;29.90;90.90
60027;DHT22;45891;53.006;6.512;2023-09-08T07:51:31;29.80;90.40
60027;DHT22;45891;53.006;6.512;2023-09-08T07:53:57;29.90;90.70
60027;DHT22;45891;53.006;6.512;2023-09-08T07:56:23;30.00;90.30
60027;DHT22;45891;53.006;6.512;2023-09-08T07:58:49;30.20;89.50
60027;DHT22;45891;53.006;6.512;2023-09-08T08:01:16;30.10;88.80
60027;DHT22;45891;53.006;6.512;2023-09-08T08:03:42;30.00;90.00
60027;DHT22;45891;53.006;6.512;2023-09-08T08:06:08;30.30;90.00
60027;DHT22;45891;53.006;6.512;2023-09-08T08:08:34;30.30;89.20
60027;DHT22;45891;53.006;6.512;2023-09-08T08:11:15;30.30;88.30
60027;DHT22;45891;53.006;6.512;2023-09-08T08:13:41;30.20;87.20
60027;DHT22;45891;53.006;6.512;2023-09-08T08:16:07;30.50;88.70
60027;DHT22;45891;53.006;6.512;2023-09-08T08:18:33;31.00;88.60
60027;DHT22;45891;53.006;6.512;2023-09-08T08:20:59;31.20;87.20
60027;DHT22;45891;53.006;6.512;2023-09-08T08:23:30;31.40;87.60
60027;DHT22;45891;53.006;6.512;2023-09-08T08:25:57;31.40;86.60
60027;DHT22;45891;53.006;6.512;2023-09-08T08:28:23;31.60;86.20
60027;DHT22;45891;53.006;6.512;2023-09-08T08:30:51;31.90;86.80
60027;DHT22;45891;53.006;6.512;2023-09-08T08:33:17;32.30;85.10
60027;DHT22;45891;53.006;6.512;2023-09-08T08:35:50;32.50;85.80
60027;DHT22;45891;53.006;6.512;2023-09-08T08:38:16;32.80;83.80
60027;DHT22;45891;53.006;6.512;2023-09-08T08:40:42;32.70;82.50
60027;DHT22;45891;53.006;6.512;2023-09-08T08:43:09;32.20;82.50
60027;DHT22;45891;53.006;6.512;2023-09-08T08:45:37;31.70;81.90
60027;DHT22;45891;53.006;6.512;2023-09-08T08:48:04;31.40;81.00
60027;DHT22;45891;53.006;6.512;2023-09-08T08:50:32;31.20;83.10
60027;DHT22;45891;53.006;6.512;2023-09-08T08:52:58;31.30;81.60
60027;DHT22;45891;53.006;6.512;2023-09-08T08:55:25;31.00;82.80
60027;DHT22;45891;53.006;6.512;2023-09-08T08:57:52;31.50;82.70
60027;DHT22;45891;53.006;6.512;2023-09-08T09:00:19;31.90;82.60
60027;DHT22;45891;53.006;6.512;2023-09-08T09:02:45;32.40;82.10
60027;DHT22;45891;53.006;6.512;2023-09-08T09:05:14;32.60;79.70
60027;DHT22;45891;53.006;6.512;2023-09-08T09:07:44;32.90;80.90
60027;DHT22;45891;53.006;6.512;2023-09-08T09:10:10;32.90;79.00
60027;DHT22;45891;53.006;6.512;2023-09-08T09:12:39;33.00;81.60
60027;DHT22;45891;53.006;6.512;2023-09-08T09:15:06;32.90;79.90
60027;DHT22;45891;53.006;6.512;2023-09-08T09:17:34;33.10;80.10
60027;DHT22;45891;53.006;6.512;2023-09-08T09:20:14;33.30;80.00
60027;DHT22;45891;53.006;6.512;2023-09-08T09:22:44;33.30;79.70
60027;DHT22;45891;53.006;6.512;2023-09-08T09:25:21;33.70;79.60
60027;DHT22;45891;53.006;6.512;2023-09-08T09:27:59;34.00;78.50
60027;DHT22;45891;53.006;6.512;2023-09-08T09:30:26;34.30;79.80
60027;DHT22;45891;53.006;6.512;2023-09-08T09:33:00;34.80;78.60
60027;DHT22;45891;53.006;6.512;2023-09-08T09:35:44;35.00;78.60
60027;DHT22;45891;53.006;6.512;2023-09-08T09:38:10;35.30;77.00
60027;DHT22;45891;53.006;6.512;2023-09-08T09:40:37;35.20;76.30
60027;DHT22;45891;53.006;6.512;2023-09-08T09:43:05;35.50;76.40
60027;DHT22;45891;53.006;6.512;2023-09-08T09:45:35;36.00;76.40
60027;DHT22;45891;53.006;6.512;2023-09-08T09:48:05;36.50;75.50
60027;DHT22;45891;53.006;6.512;2023-09-08T09:50:33;36.40;73.90
60027;DHT22;45891;53.006;6.512;2023-09-08T09:53:01;36.30;74.70
60027;DHT22;45891;53.006;6.512;2023-09-08T09:55:28;36.70;75.40
60027;DHT22;45891;53.006;6.512;2023-09-08T09:57:58;37.10;74.10
60027;DHT22;45891;53.006;6.512;2023-09-08T10:00:27;37.00;74.00
60027;DHT22;45891;53.006;6.512;2023-09-08T10:02:54;37.10;73.00
60027;DHT22;45891;53.006;6.512;2023-09-08T10:05:21;36.90;72.90
60027;DHT22;45891;53.006;6.512;2023-09-08T10:07:47;36.90;73.30
60027;DHT22;45891;53.006;6.512;2023-09-08T10:10:15;36.90;72.60
60027;DHT22;45891;53.006;6.512;2023-09-08T10:12:44;36.40;72.00
60027;DHT22;45891;53.006;6.512;2023-09-08T10:15:17;36.00;73.10
60027;DHT22;45891;53.006;6.512;2023-09-08T10:17:44;36.40;73.30
60027;DHT22;45891;53.006;6.512;2023-09-08T10:20:13;36.70;73.40
60027;DHT22;45891;53.006;6.512;2023-09-08T10:22:42;37.30;73.10
60027;DHT22;45891;53.006;6.512;2023-09-08T10:25:09;37.50;72.10
60027;DHT22;45891;53.006;6.512;2023-09-08T10:27:38;37.80;73.40
60027;DHT22;45891;53.006;6.512;2023-09-08T10:30:06;37.90;71.30
60027;DHT22;45891;53.006;6.512;2023-09-08T10:32:33;37.40;71.80
60027;DHT22;45891;53.006;6.512;2023-09-08T10:35:04;37.20;71.60
60027;DHT22;45891;53.006;6.512;2023-09-08T10:37:32;37.60;73.10
60027;DHT22;45891;53.006;6.512;2023-09-08T10:42:47;38.30;72.50
60027;DHT22;45891;53.006;6.512;2023-09-08T10:45:19;38.70;72.40
60027;DHT22;45891;53.006;6.512;2023-09-08T10:50:19;38.80;71.50
60027;DHT22;45891;53.006;6.512;2023-09-08T10:53:16;39.00;71.80
60027;DHT22;45891;53.006;6.512;2023-09-08T10:55:47;39.20;70.20
60027;DHT22;45891;53.006;6.512;2023-09-08T10:58:43;39.20;70.90
60027;DHT22;45891;53.006;6.512;2023-09-08T11:01:17;38.90;68.90
60027;DHT22;45891;53.006;6.512;2023-09-08T11:03:46;38.60;70.60
60027;DHT22;45891;53.006;6.512;2023-09-08T11:06:15;38.90;70.70
60027;DHT22;45891;53.006;6.512;2023-09-08T11:08:42;38.90;69.50
60027;DHT22;45891;53.006;6.512;2023-09-08T11:11:16;38.90;70.60
60027;DHT22;45891;53.006;6.512;2023-09-08T11:13:42;39.40;69.40
60027;DHT22;45891;53.006;6.512;2023-09-08T11:16:12;39.00;69.30
60027;DHT22;45891;53.006;6.512;2023-09-08T11:18:38;39.20;70.00
60027;DHT22;45891;53.006;6.512;2023-09-08T11:21:08;39.40;70.10
60027;DHT22;45891;53.006;6.512;2023-09-08T11:23:34;39.10;67.50
60027;DHT22;45891;53.006;6.512;2023-09-08T11:26:01;38.90;67.50
60027;DHT22;45891;53.006;6.512;2023-09-08T11:28:27;38.50;67.70
60027;DHT22;45891;53.006;6.512;2023-09-08T11:30:56;38.40;67.90
60027;DHT22;45891;53.006;6.512;2023-09-08T11:33:23;38.80;68.50
60027;DHT22;45891;53.006;6.512;2023-09-08T11:35:54;39.30;68.50
60027;DHT22;45891;53.006;6.512;2023-09-08T11:38:27;39.50;68.50
60027;DHT22;45891;53.006;6.512;2023-09-08T11:40:54;39.80;65.90
60027;DHT22;45891;53.006;6.512;2023-09-08T11:43:23;39.40;66.30
60027;DHT22;45891;53.006;6.512;2023-09-08T11:45:49;38.80;64.70
60027;DHT22;45891;53.006;6.512;2023-09-08T11:48:16;38.20;65.10
60027;DHT22;45891;53.006;6.512;2023-09-08T11:50:43;37.70;64.20
60027;DHT22;45891;53.006;6.512;2023-09-08T11:53:10;37.20;65.70
60027;DHT22;45891;53.006;6.512;2023-09-08T11:55:36;36.80;66.10
60027;DHT22;45891;53.006;6.512;2023-09-08T11:58:05;36.90;66.30
60027;DHT22;45891;53.006;6.512;2023-09-08T12:00:32;37.30;65.80
60027;DHT22;45891;53.006;6.512;2023-09-08T12:03:11;37.40;64.70
60027;DHT22;45891;53.006;6.512;2023-09-08T12:05:38;37.40;64.30
60027;DHT22;45891;53.006;6.512;2023-09-08T12:08:05;37.60;66.40
60027;DHT22;45891;53.006;6.512;2023-09-08T12:10:38;38.10;65.30
60027;DHT22;45891;53.006;6.512;2023-09-08T12:13:05;38.40;65.00
60027;DHT22;45891;53.006;6.512;2023-09-08T12:18:02;39.00;63.80
60027;DHT22;45891;53.006;6.512;2023-09-08T12:20:29;39.30;63.70
60027;DHT22;45891;53.006;6.512;2023-09-08T12:22:59;38.70;61.60
60027;DHT22;45891;53.006;6.512;2023-09-08T12:25:25;38.30;62.00
60027;DHT22;45891;53.006;6.512;2023-09-08T12:27:54;38.00;64.20
60027;DHT22;45891;53.006;6.512;2023-09-08T12:30:22;38.10;62.70
60027;DHT22;45891;53.006;6.512;2023-09-08T12:32:57;38.10;64.40
60027;DHT22;45891;53.006;6.512;2023-09-08T12:35:26;38.60;64.20
60027;DHT22;45891;53.006;6.512;2023-09-08T12:37:57;39.10;63.80
60027;DHT22;45891;53.006;6.512;2023-09-08T12:40:26;39.60;63.30
60027;DHT22;45891;53.006;6.512;2023-09-08T12:42:52;39.30;62.90
60027;DHT22;45891;53.006;6.512;2023-09-08T12:45:20;39.10;63.30
60027;DHT22;45891;53.006;6.512;2023-09-08T12:47:47;39.10;62.40
60027;DHT22;45891;53.006;6.512;2023-09-08T12:50:13;39.20;61.70
60027;DHT22;45891;53.006;6.512;2023-09-08T12:52:40;39.50;61.80
60027;DHT22;45891;53.006;6.512;2023-09-08T12:55:07;39.30;61.00
60027;DHT22;45891;53.006;6.512;2023-09-08T12:57:34;39.10;61.20
60027;DHT22;45891;53.006;6.512;2023-09-08T13:00:00;39.40;62.30
60027;DHT22;45891;53.006;6.512;2023-09-08T13:02:26;39.10;60.20
60027;DHT22;45891;53.006;6.512;2023-09-08T13:04:52;38.60;60.40
60027;DHT22;45891;53.006;6.512;2023-09-08T13:07:18;38.50;59.90
60027;DHT22;45891;53.006;6.512;2023-09-08T13:09:45;37.90;60.70
60027;DHT22;45891;53.006;6.512;2023-09-08T13:12:11;38.00;62.00
60027;DHT22;45891;53.006;6.512;2023-09-08T13:14:39;38.30;62.10
60027;DHT22;45891;53.006;6.512;2023-09-08T13:17:06;38.70;61.40
60027;DHT22;45891;53.006;6.512;2023-09-08T13:19:32;38.30;60.80
60027;DHT22;45891;53.006;6.512;2023-09-08T13:21:58;38.00;61.40
60027;DHT22;45891;53.006;6.512;2023-09-08T13:24:24;38.20;62.60
60027;DHT22;45891;53.006;6.512;2023-09-08T13:26:50;38.70;62.30
60027;DHT22;45891;53.006;6.512;2023-09-08T13:29:17;38.90;61.10
60027;DHT22;45891;53.006;6.512;2023-09-08T13:31:44;38.40;60.90
60027;DHT22;45891;53.006;6.512;2023-09-08T13:34:10;37.90;62.00
60027;DHT22;45891;53.006;6.512;2023-09-08T13:36:36;38.30;61.60
60027;DHT22;45891;53.006;6.512;2023-09-08T13:39:03;38.80;61.60
60027;DHT22;45891;53.006;6.512;2023-09-08T13:44:14;39.10;62.10
60027;DHT22;45891;53.006;6.512;2023-09-08T13:46:40;39.30;62.20
60027;DHT22;45891;53.006;6.512;2023-09-08T13:49:06;39.10;60.60
60027;DHT22;45891;53.006;6.512;2023-09-08T13:51:32;39.20;61.80
60027;DHT22;45891;53.006;6.512;2023-09-08T13:53:59;39.60;62.30
60027;DHT22;45891;53.006;6.512;2023-09-08T13:56:25;39.50;61.20
60027;DHT22;45891;53.006;6.512;2023-09-08T13:58:52;39.50;60.00
60027;DHT22;45891;53.006;6.512;2023-09-08T14:01:18;39.30;60.60
60027;DHT22;45891;53.006;6.512;2023-09-08T14:03:44;39.50;59.80
60027;DHT22;45891;53.006;6.512;2023-09-08T14:06:10;39.70;60.70
60027;DHT22;45891;53.006;6.512;2023-09-08T14:08:36;39.50;60.00
60027;DHT22;45891;53.006;6.512;2023-09-08T14:11:02;39.30;60.70
60027;DHT22;45891;53.006;6.512;2023-09-08T14:13:28;39.20;61.40
60027;DHT22;45891;53.006;6.512;2023-09-08T14:15:54;39.60;61.30
60027;DHT22;45891;53.006;6.512;2023-09-08T14:18:20;40.30;61.30
60027;DHT22;45891;53.006;6.512;2023-09-08T14:20:46;40.60;59.50
60027;DHT22;45891;53.006;6.512;2023-09-08T14:23:12;40.60;60.70
60027;DHT22;45891;53.006;6.512;2023-09-08T14:25:38;41.00;60.70
60027;DHT22;45891;53.006;6.512;2023-09-08T14:28:05;41.60;61.30
60027;DHT22;45891;53.006;6.512;2023-09-08T14:30:31;42.00;61.20
60027;DHT22;45891;53.006;6.512;2023-09-08T14:32:57;42.10;60.90
60027;DHT22;45891;53.006;6.512;2023-09-08T14:35:23;42.10;60.80
60027;DHT22;45891;53.006;6.512;2023-09-08T14:37:49;42.20;59.50
60027;DHT22;45891;53.006;6.512;2023-09-08T14:40:15;42.30;59.10
60027;DHT22;45891;53.006;6.512;2023-09-08T14:42:42;42.40;59.70
60027;DHT22;45891;53.006;6.512;2023-09-08T14:45:08;42.70;60.10
60027;DHT22;45891;53.006;6.512;2023-09-08T14:47:34;42.40;59.10
60027;DHT22;45891;53.006;6.512;2023-09-08T14:50:01;42.40;59.30
60027;DHT22;45891;53.006;6.512;2023-09-08T14:52:29;42.20;60.10
60027;DHT22;45891;53.006;6.512;2023-09-08T14:54:55;42.20;59.90
60027;DHT22;45891;53.006;6.512;2023-09-08T14:57:21;42.40;59.90
60027;DHT22;45891;53.006;6.512;2023-09-08T14:59:47;42.60;60.00
60027;DHT22;45891;53.006;6.512;2023-09-08T15:02:13;42.90;59.40
60027;DHT22;45891;53.006;6.512;2023-09-08T15:04:39;42.50;58.80
60027;DHT22;45891;53.006;6.512;2023-09-08T15:07:05;42.10;59.70
60027;DHT22;45891;53.006;6.512;2023-09-08T15:09:31;42.00;58.60
60027;DHT22;45891;53.006;6.512;2023-09-08T15:11:57;42.00;59.50
60027;DHT22;45891;53.006;6.512;2023-09-08T15:14:23;42.30;60.50
60027;DHT22;45891;53.006;6.512;2023-09-08T15:16:50;42.10;59.50
60027;DHT22;45891;53.006;6.512;2023-09-08T15:19:16;42.20;59.80
60027;DHT22;45891;53.006;6.512;2023-09-08T15:21:42;42.20;60.00
60027;DHT22;45891;53.006;6.512;2023-09-08T15:24:08;42.30;59.20
60027;DHT22;45891;53.006;6.512;2023-09-08T15:26:34;42.20;59.70
60027;DHT22;45891;53.006;6.512;2023-09-08T15:29:00;42.00;59.50
60027;DHT22;45891;53.006;6.512;2023-09-08T15:31:26;41.70;59.10
60027;DHT22;45891;53.006;6.512;2023-09-08T15:33:52;41.80;60.30
60027;DHT22;45891;53.006;6.512;2023-09-08T15:36:18;41.90;59.90
60027;DHT22;45891;53.006;6.512;2023-09-08T15:38:44;41.80;59.50
60027;DHT22;45891;53.006;6.512;2023-09-08T15:43:39;41.60;60.00
60027;DHT22;45891;53.006;6.512;2023-09-08T15:46:07;41.50;59.30